createdAt,value
2018-04-28T00:02:51.562Z,100293.17
2018-04-28T00:07:53.666Z,100287.56
2018-04-28T00:12:55.015Z,100288.02
2018-04-28T00:17:56.343Z,100290.05
2018-04-28T00:23:03.216Z,100286.98
2018-04-28T00:28:11.285Z,100286.14
2018-04-28T00:33:18.423Z,100290.00
2018-04-28T00:38:19.746Z,100286.01
2018-04-28T00:43:22.824Z,100284.92
2018-04-28T00:54:09.222Z,100288.80
2018-04-28T00:59:27.370Z,100286.50
2018-04-28T01:04:46.872Z,100285.02
2018-04-28T01:09:59.473Z,100288.52
2018-04-28T01:20:44.130Z,100278.03
2018-04-28T01:25:45.443Z,100290.27
2018-04-28T01:30:51.558Z,100289.44
2018-04-28T01:36:03.954Z,100288.36
2018-04-28T01:41:20.274Z,100290.25
2018-04-28T01:51:58.434Z,100289.20
2018-04-28T02:02:42.618Z,100290.56
2018-04-28T02:07:45.818Z,100298.24
2018-04-28T02:12:48.906Z,100296.00
2018-04-28T02:29:34.166Z,100294.30
2018-04-28T02:34:40.233Z,100292.58
2018-04-28T02:45:21.263Z,100298.80
2018-04-28T02:50:34.515Z,100301.05
2018-04-28T03:07:29.807Z,100319.86
2018-04-28T03:12:31.118Z,100322.84
2018-04-28T03:17:45.074Z,100333.28
2018-04-28T03:22:48.070Z,100321.12
2018-04-28T03:34:29.513Z,100330.64
2018-04-28T03:39:30.822Z,100339.61
2018-04-28T03:44:43.914Z,100342.84
2018-04-28T03:49:45.232Z,100353.82
2018-04-28T03:54:46.554Z,100344.54
2018-04-28T04:00:06.578Z,100344.10
2018-04-28T04:05:08.747Z,100352.94
2018-04-28T04:10:19.835Z,100357.53
2018-04-28T04:15:35.213Z,100361.70
2018-04-28T04:27:08.283Z,100375.35
2018-04-28T04:32:16.223Z,100383.27
2018-04-28T04:37:20.255Z,100386.80
2018-04-28T04:48:16.619Z,100380.54
2018-04-28T04:53:18.882Z,100376.19
2018-04-28T04:58:26.090Z,100387.98
2018-04-28T05:09:46.802Z,100396.35
2018-04-28T05:15:05.134Z,100398.37
2018-04-28T05:20:37.849Z,100403.02
2018-04-28T05:25:57.597Z,100415.77
2018-04-28T05:37:39.886Z,100443.02
2018-04-28T05:42:59.640Z,100447.89
2018-04-28T05:59:25.762Z,100479.34
2018-04-28T06:04:39.048Z,100481.13
2018-04-28T06:10:05.366Z,100485.13
2018-04-28T06:15:31.434Z,100480.77
2018-04-28T06:20:38.646Z,100494.70
2018-04-28T06:25:40.735Z,100487.90
2018-04-28T06:30:42.062Z,100503.00
2018-04-28T06:35:43.401Z,100507.49
2018-04-28T06:40:44.741Z,100507.19
2018-04-28T06:45:46.066Z,100507.74
2018-04-28T06:50:47.385Z,100516.11
2018-04-28T06:55:49.535Z,100521.64
2018-04-28T07:00:50.941Z,100528.75
2018-04-28T07:05:52.261Z,100534.08
2018-04-28T07:10:53.601Z,100531.45
2018-04-28T07:15:55.433Z,100537.52
2018-04-28T07:20:56.817Z,100539.31
2018-04-28T07:25:58.167Z,100545.89
2018-04-28T07:30:59.486Z,100555.19
2018-04-28T07:36:01.053Z,100548.86
2018-04-28T07:41:02.451Z,100549.42
2018-04-28T07:46:03.766Z,100556.01
2018-04-28T07:51:05.102Z,100558.66
2018-04-28T07:56:07.161Z,100557.61
2018-04-28T08:01:08.478Z,100567.14
2018-04-28T08:06:09.801Z,100564.07
2018-04-28T08:11:11.118Z,100561.41
2018-04-28T08:16:12.445Z,100566.49
2018-04-28T08:21:13.774Z,100572.77
2018-04-28T08:26:15.097Z,100570.74
2018-04-28T08:31:16.472Z,100573.66
2018-04-28T08:36:17.811Z,100574.01
2018-04-28T08:41:19.170Z,100573.49
2018-04-28T08:46:20.482Z,100577.49
2018-04-28T08:51:21.811Z,100574.05
2018-04-28T08:56:23.140Z,100577.46
2018-04-28T09:01:24.432Z,100576.77
2018-04-28T09:06:25.750Z,100575.16
2018-04-28T09:11:27.813Z,100582.45
2018-04-28T09:16:29.109Z,100572.69
2018-04-28T09:21:30.427Z,100579.78
2018-04-28T09:26:31.739Z,100586.09
2018-04-28T09:31:33.782Z,100580.05
2018-04-28T09:36:35.076Z,100588.55
2018-04-28T09:41:36.409Z,100599.62
2018-04-28T09:46:38.474Z,100595.23
2018-04-28T09:51:40.396Z,100603.77
2018-04-28T09:56:41.737Z,100607.05
2018-04-28T10:01:43.915Z,100600.03
2018-04-28T10:06:46.022Z,100603.04
2018-04-28T10:11:48.075Z,100599.98
2018-04-28T10:16:49.385Z,100599.25
2018-04-28T10:21:50.686Z,100601.72
2018-04-28T10:26:52.015Z,100595.38
2018-04-28T10:31:53.322Z,100604.59
2018-04-28T10:36:54.610Z,100600.14
2018-04-28T10:41:55.943Z,100599.31
2018-04-28T10:46:57.227Z,100604.13
2018-04-28T10:51:58.548Z,100608.00
2018-04-28T10:57:00.588Z,100604.86
2018-04-28T11:02:01.904Z,100602.02
2018-04-28T11:07:03.216Z,100600.19
2018-04-28T11:12:04.519Z,100607.11
2018-04-28T11:17:06.552Z,100603.05
2018-04-28T11:22:08.533Z,100608.27
2018-04-28T11:27:10.585Z,100618.00
2018-04-28T11:32:11.890Z,100620.11
2018-04-28T11:37:13.214Z,100619.20
2018-04-28T11:42:15.334Z,100622.56
2018-04-28T11:47:17.599Z,100622.30
2018-04-28T11:52:18.978Z,100626.58
2018-04-28T11:57:20.323Z,100620.56
2018-04-28T12:02:22.378Z,100614.36
2018-04-28T12:07:23.689Z,100623.64
2018-04-28T12:12:25.015Z,100630.37
2018-04-28T12:17:26.327Z,100639.39
2018-04-28T12:22:27.687Z,100636.37
2018-04-28T12:27:29.751Z,100631.37
2018-04-28T12:32:31.074Z,100624.73
2018-04-28T12:37:33.126Z,100631.50
2018-04-28T12:42:41.530Z,100630.95
2018-04-28T12:47:43.594Z,100627.66
2018-04-28T12:52:44.915Z,100622.45
2018-04-28T12:57:46.247Z,100626.31
2018-04-28T13:02:47.602Z,100632.20
2018-04-28T13:07:49.658Z,100632.63
2018-04-28T13:12:50.969Z,100624.98
2018-04-28T13:17:52.293Z,100629.69
2018-04-28T13:22:54.378Z,100630.13
2018-04-28T13:27:55.706Z,100634.47
2018-04-28T13:32:57.034Z,100637.37
2018-04-28T13:37:58.352Z,100635.23
2018-04-28T13:42:59.683Z,100629.67
2018-04-28T13:48:01.046Z,100625.27
2018-04-28T13:53:03.099Z,100622.11
2018-04-28T13:58:04.406Z,100625.27
2018-04-28T14:03:05.717Z,100620.63
2018-04-28T14:08:07.031Z,100617.50
2018-04-28T14:13:09.082Z,100626.77
2018-04-28T14:18:10.402Z,100616.39
2018-04-28T14:23:11.718Z,100612.53
2018-04-28T14:28:13.062Z,100615.22
2018-04-28T14:33:14.366Z,100612.16
2018-04-28T14:38:15.699Z,100620.41
2018-04-28T14:43:17.011Z,100613.27
2018-04-28T14:48:18.322Z,100616.72
2018-04-28T14:53:19.637Z,100617.66
2018-04-28T14:58:21.715Z,100617.12
2018-04-28T15:03:23.049Z,100616.98
2018-04-28T15:08:24.369Z,100625.89
2018-04-28T15:13:25.661Z,100621.39
2018-04-28T15:18:26.990Z,100634.63
2018-04-28T15:23:28.304Z,100634.16
2018-04-28T15:28:29.621Z,100631.91
2018-04-28T15:33:30.949Z,100624.86
2018-04-28T15:38:32.263Z,100619.34
2018-04-28T15:43:34.326Z,100616.24
2018-04-28T15:48:35.639Z,100615.64
2018-04-28T15:53:36.978Z,100616.09
2018-04-28T15:58:38.291Z,100619.52
2018-04-28T16:03:39.606Z,100622.27
2018-04-28T16:08:40.932Z,100626.74
2018-04-28T16:13:42.246Z,100622.17
2018-04-28T16:18:43.551Z,100624.66
2018-04-28T16:23:44.879Z,100626.72
2018-04-28T16:28:46.934Z,100631.27
2018-04-28T16:33:48.250Z,100628.08
2018-04-28T16:38:49.587Z,100630.17
2018-04-28T16:43:50.934Z,100623.93
2018-04-28T16:48:52.270Z,100630.19
2018-04-28T16:53:53.618Z,100628.45
2018-04-28T16:58:55.757Z,100619.13
2018-04-28T17:03:57.006Z,100630.09
2018-04-28T17:08:58.324Z,100633.37
2018-04-28T17:13:59.641Z,100627.02
2018-04-28T17:19:00.955Z,100633.59
2018-04-28T17:24:02.316Z,100638.09
2018-04-28T17:29:03.660Z,100643.84
2018-04-28T17:34:05.042Z,100653.43
2018-04-28T17:39:07.219Z,100640.36
2018-04-28T17:44:08.622Z,100647.41
2018-04-28T17:49:10.582Z,100643.73
2018-04-28T17:54:12.959Z,100661.11
2018-04-28T17:59:14.350Z,100663.36
2018-04-28T18:04:15.683Z,100663.16
2018-04-28T18:09:17.032Z,100669.20
2018-04-28T18:14:18.350Z,100663.17
2018-04-28T18:19:19.668Z,100671.37
2018-04-28T18:24:21.006Z,100668.13
2018-04-28T18:29:22.351Z,100665.22
2018-04-28T18:34:23.674Z,100668.16
2018-04-28T18:39:24.994Z,100666.86
2018-04-28T18:44:26.310Z,100673.85
2018-04-28T18:49:27.629Z,100676.14
2018-04-28T18:54:28.982Z,100675.31
2018-04-28T18:59:30.299Z,100679.22
2018-04-28T19:04:31.618Z,100676.32
2018-04-28T19:09:32.939Z,100682.09
2018-04-28T19:14:34.297Z,100676.98
2018-04-28T19:19:35.667Z,100672.61
2018-04-28T19:24:36.998Z,100663.64
2018-04-28T19:29:38.330Z,100660.31
2018-04-28T19:34:39.652Z,100668.91
2018-04-28T19:39:40.983Z,100672.02
2018-04-28T19:44:42.302Z,100673.31
2018-04-28T19:49:43.624Z,100674.22
2018-04-28T19:54:45.671Z,100674.48
2018-04-28T19:59:47.003Z,100685.47
2018-04-28T20:04:48.326Z,100687.47
2018-04-28T20:09:50.414Z,100689.04
2018-04-28T20:14:51.747Z,100685.95
2018-04-28T20:19:53.074Z,100681.84
2018-04-28T20:25:09.835Z,100676.63
2018-04-28T20:30:11.214Z,100670.50
2018-04-28T20:35:13.224Z,100665.65
2018-04-28T20:40:14.538Z,100667.66
2018-04-28T20:45:16.565Z,100657.39
2018-04-28T20:50:17.887Z,100663.55
2018-04-28T20:55:19.216Z,100665.73
2018-04-28T21:00:21.281Z,100673.06
2018-04-28T21:05:22.643Z,100678.33
2018-04-28T21:10:23.998Z,100689.49
2018-04-28T21:15:25.353Z,100682.58
2018-04-28T21:20:26.674Z,100680.13
2018-04-28T21:25:27.994Z,100687.17
2018-04-28T21:30:29.346Z,100698.02
2018-04-28T21:35:30.670Z,100695.48
2018-04-28T21:40:32.734Z,100704.05
2018-04-28T21:45:34.062Z,100703.93
2018-04-28T21:50:36.118Z,100696.81
2018-04-28T21:55:37.430Z,100701.11
2018-04-28T22:00:38.756Z,100708.39
2018-04-28T22:05:40.054Z,100726.28
2018-04-28T22:10:41.377Z,100729.08
2018-04-28T22:15:42.686Z,100729.41
2018-04-28T22:20:44.004Z,100728.30
2018-04-28T22:25:45.329Z,100722.97
2018-04-28T22:30:46.663Z,100721.34
2018-04-28T22:35:48.743Z,100715.27
2018-04-28T22:40:50.099Z,100728.05
2018-04-28T22:45:51.425Z,100719.33
2018-04-28T22:50:52.771Z,100724.21
2018-04-28T22:55:54.078Z,100720.58
2018-04-28T23:00:55.409Z,100710.82
2018-04-28T23:05:56.735Z,100709.62
2018-04-28T23:10:58.038Z,100715.00
2018-04-28T23:15:59.333Z,100716.33
2018-04-28T23:21:00.626Z,100719.47
2018-04-28T23:26:01.957Z,100723.16
2018-04-28T23:31:03.277Z,100711.46
2018-04-28T23:36:04.587Z,100715.75
2018-04-28T23:41:05.899Z,100705.37
2018-04-28T23:46:07.217Z,100699.98
2018-04-28T23:51:08.532Z,100697.00
2018-04-28T23:56:09.830Z,100680.72
